Time;durP1;ratioP1;P1;durP2;ratioP2;P2;SDS_P1;SDS_P2;PMS_P1;PMS_P2;Temp;Humidity;BMP_temperature;BMP_pressure;BME280_temperature;BME280_humidity;BME280_pressure;Samples;Min_cycle;Max_cycle;Signal;HPM_P1;HPM_P2
2021/12/24 00:01:13;;;;;;;88.43;35.63;;;;;;;1.13;65.26;100469.59;5041160;28;20041;-69
2021/12/24 00:03:38;;;;;;;89.17;35.77;;;;;;;1.07;65.16;100466.47;5044789;28;20239;-73
2021/12/24 00:06:05;;;;;;;112.33;40.50;;;;;;;1.12;65.16;100475.72;5045585;28;20033;-69
2021/12/24 00:08:32;;;;;;;124.80;43.00;;;;;;;1.08;65.07;100465.53;5045374;28;20092;-68
2021/12/24 00:10:59;;;;;;;125.17;43.67;;;;;;;1.26;65.08;100474.97;5045076;28;20041;-69
2021/12/24 00:13:26;;;;;;;134.33;44.70;;;;;;;1.17;64.94;100465.03;5044973;28;20033;-74
2021/12/24 00:16:04;;;;;;;150.30;48.60;;;;;;;1.20;64.46;100465.72;5044906;28;20040;-68
2021/12/24 00:37:19;;;;;;;90.72;35.42;;;;;;;0.72;66.11;100460.53;5044698;28;20056;-74
2021/12/24 00:39:56;;;;;;;89.83;35.90;;;;;;;0.72;65.67;100443.13;5044251;28;20340;-68
2021/12/24 00:42:22;;;;;;;100.33;37.77;;;;;;;0.75;65.59;100442.13;5044652;28;20046;-69
2021/12/24 00:44:47;;;;;;;94.07;36.57;;;;;;;0.83;65.70;100461.63;5044626;28;20056;-69
2021/12/24 00:47:13;;;;;;;92.93;36.27;;;;;;;0.81;65.82;100453.06;5044397;28;20184;-74
2021/12/24 00:49:39;;;;;;;97.27;37.70;;;;;;;0.92;65.44;100448.09;5044331;28;20227;-75
2021/12/24 00:57:18;;;;;;;110.93;43.33;;;;;;;0.74;65.48;100430.84;5044514;28;20040;-74
2021/12/24 00:59:44;;;;;;;98.80;42.10;;;;;;;0.72;65.51;100426.66;5044180;28;20030;-69
2021/12/24 01:02:09;;;;;;;96.20;41.07;;;;;;;0.64;65.14;100409.66;5025907;28;20025;-69
2021/12/24 01:04:35;;;;;;;91.10;37.37;;;;;;;0.77;64.90;100429.84;5044763;28;20311;-74
2021/12/24 01:07:00;;;;;;;88.10;36.03;;;;;;;0.79;65.02;100425.38;5026489;28;20316;-69
2021/12/24 01:09:26;;;;;;;94.73;37.67;;;;;;;0.73;65.17;100408.31;5043694;28;20032;-73
2021/12/24 01:11:51;;;;;;;91.33;35.73;;;;;;;0.86;64.20;100405.88;5043838;28;20316;-70
2021/12/24 01:14:20;;;;;;;111.70;41.20;;;;;;;0.79;64.40;100407.97;5043380;28;20033;-74
2021/12/24 01:16:54;;;;;;;109.10;39.47;;;;;;;0.71;64.97;100406.72;5043701;28;20039;-68
2021/12/24 01:19:23;;;;;;;111.47;40.97;;;;;;;0.76;64.40;100402.94;5043708;28;20041;-68
2021/12/24 01:24:31;;;;;;;102.00;38.97;;;;;;;0.82;63.81;100400.00;5043769;28;20250;-70
2021/12/24 01:27:14;;;;;;;107.82;41.85;;;;;;;0.77;63.89;100391.59;5043824;28;20101;-68
2021/12/24 01:29:53;;;;;;;97.00;38.93;;;;;;;0.65;64.70;100381.81;5043629;28;20041;-69
2021/12/24 01:43:24;;;;;;;102.53;40.33;;;;;;;0.52;64.99;100355.59;5033315;28;20097;-74
2021/12/24 01:45:51;;;;;;;106.50;38.87;;;;;;;0.46;64.98;100352.47;5025892;28;20063;-70
2021/12/24 01:48:17;;;;;;;99.83;39.73;;;;;;;0.30;65.03;100331.63;5043375;28;20063;-68
2021/12/24 01:50:47;;;;;;;106.70;40.73;;;;;;;0.69;63.89;100338.19;5043445;28;20029;-68
2021/12/24 01:53:15;;;;;;;98.57;42.33;;;;;;;0.53;64.08;100323.41;5043214;28;20065;-74
2021/12/24 01:55:42;;;;;;;99.30;40.67;;;;;;;0.64;64.07;100318.44;5043140;28;20034;-74
2021/12/24 01:58:08;;;;;;;99.80;40.73;;;;;;;0.76;63.75;100327.34;5025506;28;20030;-69
2021/12/24 02:00:38;;;;;;;101.23;41.07;;;;;;;0.39;63.12;100302.47;5020888;28;20045;-68
2021/12/24 02:03:06;;;;;;;105.53;44.37;;;;;;;0.61;63.48;100323.81;5003105;28;20041;-73
2021/12/24 02:05:31;;;;;;;110.43;45.17;;;;;;;0.63;63.53;100326.34;5022114;28;20098;-69
2021/12/24 02:07:59;;;;;;;91.03;41.70;;;;;;;0.62;63.42;100314.25;5021758;28;20041;-74
2021/12/24 02:10:25;;;;;;;104.27;42.53;;;;;;;0.66;63.35;100305.31;5020344;28;20337;-68
2021/12/24 02:12:52;;;;;;;106.50;44.73;;;;;;;0.93;62.16;100297.72;5020257;28;20086;-68
2021/12/24 02:28:50;;;;;;;104.85;41.17;;;;;;;0.87;61.88;100304.13;5022918;28;20036;-74
2021/12/24 02:31:18;;;;;;;105.67;41.10;;;;;;;0.67;61.92;100300.94;5021747;28;20180;-75
2021/12/24 02:33:44;;;;;;;127.53;46.87;;;;;;;0.23;63.21;100288.59;5020384;28;20049;-68
2021/12/24 02:36:09;;;;;;;161.73;50.30;;;;;;;0.66;62.32;100299.28;5003406;28;20319;-73
2021/12/24 02:38:36;;;;;;;96.43;42.20;;;;;;;0.71;62.34;100279.00;5022880;28;20061;-69
2021/12/24 02:41:03;;;;;;;102.83;42.47;;;;;;;0.82;62.07;100276.63;5022603;28;20029;-69
2021/12/24 02:43:29;;;;;;;90.20;40.07;;;;;;;0.70;62.22;100287.75;5022857;28;20037;-68
2021/12/24 02:45:58;;;;;;;118.13;44.97;;;;;;;0.78;61.94;100282.94;5022699;28;20067;-68
2021/12/24 02:54:00;;;;;;;127.47;45.67;;;;;;;0.64;62.51;100274.13;5022726;28;20285;-69
2021/12/24 02:56:30;;;;;;;110.70;43.50;;;;;;;0.58;62.84;100289.28;5022433;28;20049;-74
2021/12/24 02:58:57;;;;;;;111.97;44.83;;;;;;;0.62;63.09;100282.97;5022374;28;20177;-73
2021/12/24 03:01:27;;;;;;;110.10;44.33;;;;;;;0.54;63.27;100278.19;5022248;28;20033;-73
2021/12/24 03:03:53;;;;;;;119.30;46.67;;;;;;;0.40;63.73;100278.09;5022487;28;20087;-74
2021/12/24 03:06:20;;;;;;;131.90;50.63;;;;;;;0.64;62.98;100284.56;5022510;28;20379;-70
2021/12/24 03:08:47;;;;;;;114.77;45.07;;;;;;;0.50;63.26;100283.66;5022494;28;20038;-68
2021/12/24 03:11:12;;;;;;;111.77;46.53;;;;;;;0.66;63.11;100270.59;5022446;28;20034;-69
2021/12/24 03:13:39;;;;;;;131.07;49.20;;;;;;;0.47;63.14;100279.44;5022032;28;20041;-74
2021/12/24 03:16:05;;;;;;;119.60;48.50;;;;;;;0.48;63.46;100275.06;5022291;28;20038;-74
2021/12/24 03:18:34;;;;;;;110.83;45.70;;;;;;;0.66;62.63;100270.59;5022236;28;20052;-74
2021/12/24 03:21:27;;;;;;;97.43;43.07;;;;;;;0.64;62.13;100260.25;5022073;28;20069;-73
2021/12/24 03:24:34;;;;;;;108.70;44.73;;;;;;;0.65;62.36;100282.78;5020375;28;20271;-68
2021/12/24 03:26:41;;;;;;;105.43;45.13;;;;;;;0.53;62.63;100271.28;5017656;28;20034;-70
2021/12/24 03:29:09;;;;;;;201.90;60.57;;;;;;;0.53;63.01;100276.50;5017199;28;20033;-74
2021/12/24 03:31:37;;;;;;;116.20;45.97;;;;;;;0.52;63.17;100274.81;5018961;28;20041;-69
2021/12/24 03:34:04;;;;;;;113.40;47.43;;;;;;;0.08;64.42;100273.81;5019072;28;20170;-68
2021/12/24 03:36:29;;;;;;;115.17;44.33;;;;;;;-0.07;64.61;100257.22;5018490;28;20033;-74
2021/12/24 03:38:57;;;;;;;107.03;44.17;;;;;;;-0.19;65.19;100250.06;5022661;28;20084;-69
2021/12/24 03:41:23;;;;;;;101.10;42.00;;;;;;;-0.23;65.80;100238.97;5021860;28;20338;-69
2021/12/24 03:43:49;;;;;;;115.53;45.93;;;;;;;-0.23;65.94;100232.94;5022615;28;20042;-69
2021/12/24 03:46:18;;;;;;;128.87;52.27;;;;;;;-0.04;65.53;100244.88;5023616;28;20026;-73
2021/12/24 03:48:50;;;;;;;170.57;59.77;;;;;;;0.09;64.82;100234.69;5024320;28;20046;-69
2021/12/24 03:56:32;;;;;;;179.37;61.33;;;;;;;-0.22;64.47;100206.00;5020780;28;20036;-68
2021/12/24 03:58:58;;;;;;;154.37;59.23;;;;;;;0.17;63.79;100240.31;5020516;28;20397;-74
2021/12/24 04:01:24;;;;;;;154.33;57.73;;;;;;;0.24;63.17;100241.66;5023834;28;20057;-74
2021/12/24 04:03:49;;;;;;;155.13;57.60;;;;;;;-0.27;63.88;100234.88;5003755;28;20106;-68
2021/12/24 04:06:15;;;;;;;144.77;54.23;;;;;;;-0.31;63.93;100235.94;5022494;28;20088;-73
2021/12/24 04:08:40;;;;;;;142.40;52.53;;;;;;;-0.13;64.05;100228.91;5021725;28;20331;-69
2021/12/24 04:11:06;;;;;;;133.00;50.83;;;;;;;-0.16;64.55;100229.09;5024434;28;20026;-69
2021/12/24 04:13:32;;;;;;;125.23;49.43;;;;;;;-0.16;64.53;100222.13;5023777;28;20029;-69
2021/12/24 04:15:58;;;;;;;124.03;48.60;;;;;;;-0.47;65.07;100214.28;5023126;28;20220;-73
2021/12/24 04:26:30;;;;;;;126.80;48.50;;;;;;;-0.52;65.83;100203.25;5024302;28;20075;-74
2021/12/24 04:28:55;;;;;;;128.47;49.43;;;;;;;-0.41;65.16;100200.94;5025141;28;20331;-73
2021/12/24 04:31:27;;;;;;;140.73;51.53;;;;;;;-0.34;64.30;100197.94;5022985;28;20314;-68
2021/12/24 04:33:58;;;;;;;116.93;48.67;;;;;;;-0.34;64.15;100192.72;5024940;28;20045;-68
2021/12/24 05:01:18;;;;;;;131.57;49.63;;;;;;;-0.19;64.64;100172.84;5022150;28;20040;-69
2021/12/24 05:03:45;;;;;;;124.67;49.23;;;;;;;-0.20;64.90;100172.91;5018560;28;20033;-73
2021/12/24 05:06:25;;;;;;;129.77;48.70;;;;;;;-0.11;64.80;100178.47;5020540;28;20398;-68
2021/12/24 05:11:18;;;;;;;204.03;68.93;;;;;;;-0.13;65.01;100188.13;5021023;28;20018;-70
2021/12/24 05:13:43;;;;;;;310.73;89.40;;;;;;;-0.10;64.53;100187.94;5021327;28;20180;-69
2021/12/24 05:16:21;;;;;;;175.63;61.17;;;;;;;-0.11;64.72;100186.28;5021476;28;20356;-70
2021/12/24 05:23:57;;;;;;;165.70;61.35;;;;;;;0.07;63.23;100178.41;5023280;28;20122;-74
2021/12/24 05:26:23;;;;;;;152.07;61.33;;;;;;;0.05;63.03;100191.50;5024182;28;20022;-69
2021/12/24 05:28:48;;;;;;;163.80;62.33;;;;;;;-0.17;63.81;100175.34;5020750;28;20097;-70
2021/12/24 05:31:14;;;;;;;154.63;61.97;;;;;;;-0.09;63.74;100180.97;5020815;28;20219;-74
2021/12/24 05:33:39;;;;;;;143.07;58.80;;;;;;;-0.13;63.50;100182.06;5020612;28;20072;-74
2021/12/24 05:36:05;;;;;;;139.43;56.30;;;;;;;-0.31;63.87;100186.50;5020950;28;20200;-69
2021/12/24 05:38:31;;;;;;;174.30;63.67;;;;;;;-0.36;64.61;100178.13;5020061;28;20048;-68
2021/12/24 05:40:56;;;;;;;138.33;57.83;;;;;;;-0.37;64.67;100189.44;4998927;28;20144;-69
2021/12/24 05:43:22;;;;;;;134.43;49.87;;;;;;;-0.65;63.25;100183.09;5004562;28;20025;-69
2021/12/24 05:45:48;;;;;;;114.47;45.73;;;;;;;-0.79;64.35;100189.94;5021302;28;20040;-69
2021/12/24 05:48:14;;;;;;;113.70;44.43;;;;;;;-0.72;65.15;100199.09;5020703;28;20037;-73
2021/12/24 05:50:39;;;;;;;118.77;47.17;;;;;;;-0.68;64.99;100201.47;5020831;28;20235;-73
2021/12/24 05:53:05;;;;;;;120.47;48.00;;;;;;;-0.60;64.35;100206.28;5022059;28;20030;-69
2021/12/24 05:55:30;;;;;;;122.57;46.57;;;;;;;-0.57;64.50;100211.31;5020811;28;20089;-73
2021/12/24 05:57:56;;;;;;;116.67;45.07;;;;;;;-0.57;64.50;100208.72;5019322;28;20038;-73
2021/12/24 06:00:21;;;;;;;113.67;46.10;;;;;;;-0.53;64.23;100201.59;5020212;28;20034;-72
2021/12/24 06:02:47;;;;;;;117.23;46.33;;;;;;;-0.47;64.10;100207.31;5021277;28;20257;-73
2021/12/24 06:05:13;;;;;;;136.20;54.23;;;;;;;-0.44;64.26;100196.72;5019789;28;20045;-74
2021/12/24 06:07:38;;;;;;;139.50;55.27;;;;;;;-0.24;63.30;100195.66;5020335;28;20041;-69
2021/12/24 06:10:04;;;;;;;140.67;56.07;;;;;;;-0.17;63.21;100207.44;5021389;28;20374;-73
2021/12/24 06:12:30;;;;;;;162.60;61.23;;;;;;;-0.31;64.18;100194.31;5021519;28;20251;-73
2021/12/24 06:15:02;;;;;;;141.37;57.10;;;;;;;-0.20;63.65;100210.19;5020197;28;20034;-69
2021/12/24 06:17:27;;;;;;;173.23;65.57;;;;;;;-0.18;63.92;100216.16;5019820;28;20164;-74
2021/12/24 06:19:53;;;;;;;194.83;74.80;;;;;;;-0.14;64.08;100201.22;5019889;28;20347;-69
2021/12/24 06:22:18;;;;;;;216.67;85.90;;;;;;;-0.35;64.65;100195.41;5019071;28;20038;-73
2021/12/24 06:24:44;;;;;;;198.67;81.20;;;;;;;-0.31;64.75;100189.13;5020008;28;20338;-68
2021/12/24 06:27:09;;;;;;;190.47;77.63;;;;;;;-0.28;65.08;100186.34;5021736;28;20045;-73
2021/12/24 06:29:35;;;;;;;211.43;84.63;;;;;;;0.08;64.09;100203.50;5021254;28;20042;-74
2021/12/24 06:32:00;;;;;;;247.20;91.40;;;;;;;0.03;64.32;100198.56;5019328;28;20033;-69
2021/12/24 06:34:30;;;;;;;184.03;73.73;;;;;;;-0.03;64.08;100214.47;5020357;28;20339;-68
2021/12/24 06:36:56;;;;;;;148.83;64.13;;;;;;;-0.76;66.72;100205.38;5020259;28;20030;-73
2021/12/24 06:39:21;;;;;;;135.73;58.53;;;;;;;-0.71;67.42;100206.81;5002205;28;20049;-69
2021/12/24 06:41:46;;;;;;;131.23;53.77;;;;;;;-0.84;67.61;100192.78;5018396;28;20052;-69
2021/12/24 06:44:12;;;;;;;138.50;56.30;;;;;;;-0.77;68.03;100170.75;4990412;28;20028;-73
2021/12/24 06:46:40;;;;;;;144.30;53.20;;;;;;;-0.67;68.75;100190.16;5019924;28;20028;-73
2021/12/24 06:49:06;;;;;;;170.90;71.03;;;;;;;-1.20;70.40;100192.03;5021249;28;20029;-73
2021/12/24 06:51:31;;;;;;;200.87;80.60;;;;;;;-1.09;70.94;100182.75;5021282;28;20014;-69
2021/12/24 06:53:57;;;;;;;221.37;86.07;;;;;;;-0.91;70.27;100180.19;5020430;28;20026;-74
2021/12/24 06:56:23;;;;;;;212.80;86.80;;;;;;;-0.87;70.43;100172.16;5021761;28;20030;-68
2021/12/24 06:58:48;;;;;;;193.23;81.83;;;;;;;-0.57;69.42;100179.25;5018817;28;20037;-68
2021/12/24 07:01:15;;;;;;;190.70;78.47;;;;;;;-0.55;69.71;100175.66;5018496;28;20026;-68
2021/12/24 07:03:41;;;;;;;178.60;72.33;;;;;;;-0.59;70.26;100178.50;5019853;28;20038;-74
2021/12/24 07:06:07;;;;;;;174.93;73.60;;;;;;;-0.60;70.26;100174.22;5020033;28;20252;-74
2021/12/24 07:08:33;;;;;;;165.57;67.97;;;;;;;-0.35;69.61;100164.19;5019770;28;20239;-70
2021/12/24 07:10:59;;;;;;;165.40;69.37;;;;;;;-0.17;68.56;100147.56;5018954;28;20030;-69
2021/12/24 07:13:26;;;;;;;154.57;66.83;;;;;;;0.30;67.48;100164.94;5026262;28;20235;-69
2021/12/24 07:15:51;;;;;;;149.87;64.23;;;;;;;0.41;66.48;100167.75;5027690;28;20266;-69
2021/12/24 07:18:16;;;;;;;131.03;58.13;;;;;;;0.57;66.43;100160.75;5026727;28;20052;-70
2021/12/24 07:20:42;;;;;;;133.90;58.63;;;;;;;0.98;65.11;100157.47;5027674;28;20041;-70
2021/12/24 07:23:08;;;;;;;126.27;56.17;;;;;;;1.24;64.46;100145.50;5027123;28;20049;-74
2021/12/24 07:25:33;;;;;;;145.50;59.80;;;;;;;1.64;63.06;100149.13;5027739;28;20029;-69
2021/12/24 07:28:00;;;;;;;137.30;59.53;;;;;;;1.78;62.28;100145.63;5027138;28;20065;-73
2021/12/24 07:30:26;;;;;;;131.47;57.70;;;;;;;1.80;62.17;100162.03;5025642;28;20041;-70
2021/12/24 07:32:52;;;;;;;133.13;56.13;;;;;;;2.09;59.71;100157.63;5024687;28;20037;-75
2021/12/24 07:35:17;;;;;;;122.93;54.80;;;;;;;2.27;58.93;100153.81;5008397;28;20026;-74
2021/12/24 07:37:43;;;;;;;163.57;60.03;;;;;;;2.26;58.78;100141.69;5026633;28;20046;-69
2021/12/24 07:40:10;;;;;;;131.37;54.50;;;;;;;2.42;58.11;100136.31;5024718;28;20042;-69
2021/12/24 07:42:37;;;;;;;127.67;51.07;;;;;;;2.60;58.03;100150.78;5025110;28;20268;-70
2021/12/24 07:45:04;;;;;;;145.90;60.63;;;;;;;2.75;56.56;100157.59;5008148;28;20251;-70
2021/12/24 07:47:37;;;;;;;124.80;56.80;;;;;;;2.69;56.47;100155.38;5025047;28;20033;-71
2021/12/24 07:50:17;;;;;;;153.83;70.07;;;;;;;2.71;57.13;100153.50;5022503;28;20033;-75
2021/12/24 07:52:43;;;;;;;128.27;56.70;;;;;;;3.02;56.52;100154.91;5022400;28;20034;-70
2021/12/24 07:55:10;;;;;;;120.30;55.93;;;;;;;3.15;55.58;100155.78;5027187;28;20255;-70
2021/12/24 07:57:37;;;;;;;119.40;56.57;;;;;;;3.32;54.89;100149.38;5025655;28;20271;-72
2021/12/24 08:00:05;;;;;;;119.97;54.70;;;;;;;3.53;54.69;100142.66;5024625;28;20112;-72
2021/12/24 08:02:31;;;;;;;117.23;50.93;;;;;;;3.56;54.72;100136.34;5010896;28;20029;-71
2021/12/24 08:04:57;;;;;;;111.10;47.60;;;;;;;3.75;54.13;100144.59;5028359;28;20093;-71
2021/12/24 08:07:22;;;;;;;112.30;46.23;;;;;;;3.43;53.09;100153.88;5028153;28;20072;-66
2021/12/24 08:09:50;;;;;;;85.40;40.67;;;;;;;3.24;54.76;100146.44;5010922;28;20033;-72
2021/12/24 08:12:16;;;;;;;90.57;43.90;;;;;;;3.36;54.63;100135.13;5028367;28;20097;-71
2021/12/24 08:14:43;;;;;;;88.17;41.43;;;;;;;3.65;54.76;100134.88;5028631;28;20057;-71
2021/12/24 08:17:10;;;;;;;95.50;43.17;;;;;;;3.61;54.37;100128.19;5027888;28;20040;-72
2021/12/24 08:19:35;;;;;;;223.67;69.97;;;;;;;3.54;53.90;100093.75;5028100;28;20100;-73
2021/12/24 08:22:01;;;;;;;113.47;47.73;;;;;;;3.40;55.16;100126.13;5028466;28;20101;-66
2021/12/24 08:24:27;;;;;;;87.53;41.67;;;;;;;3.48;55.34;100117.72;5025348;28;20327;-66
2021/12/24 08:26:52;;;;;;;93.30;44.23;;;;;;;3.60;54.57;100111.63;5025487;28;20044;-71
2021/12/24 08:29:19;;;;;;;95.57;44.00;;;;;;;3.66;54.20;100107.75;5025152;28;20089;-66
2021/12/24 08:31:44;;;;;;;104.83;48.60;;;;;;;3.46;55.43;100103.91;5024438;28;20034;-68
2021/12/24 08:34:11;;;;;;;97.23;45.97;;;;;;;3.40;55.10;100099.94;5025066;28;20073;-66
2021/12/24 08:36:36;;;;;;;197.20;66.50;;;;;;;3.79;55.15;100100.69;5025005;28;20205;-75
2021/12/24 08:39:04;;;;;;;106.77;49.87;;;;;;;4.01;54.36;100097.34;5024616;28;20084;-67
2021/12/24 08:41:29;;;;;;;105.17;49.83;;;;;;;4.09;54.07;100089.75;5024667;28;20112;-67
2021/12/24 08:43:54;;;;;;;101.23;49.23;;;;;;;4.06;54.51;100093.44;5024721;28;20034;-71
2021/12/24 08:46:20;;;;;;;104.93;48.67;;;;;;;4.12;54.35;100072.03;5024486;28;20037;-68
2021/12/24 08:48:46;;;;;;;94.33;42.20;;;;;;;4.29;52.93;100093.56;5007315;28;20421;-73
2021/12/24 08:51:11;;;;;;;108.23;48.80;;;;;;;4.14;53.62;100092.88;5024735;28;20037;-72
2021/12/24 08:53:38;;;;;;;89.30;42.50;;;;;;;4.05;53.20;100090.94;5024467;28;20061;-72
2021/12/24 08:56:03;;;;;;;98.23;43.87;;;;;;;3.89;53.76;100082.50;5007143;28;20109;-71
2021/12/24 08:58:29;;;;;;;98.80;45.60;;;;;;;3.63;55.39;100068.69;5024528;28;20419;-68
2021/12/24 09:00:54;;;;;;;99.43;45.97;;;;;;;3.48;56.28;100086.31;5006490;28;20033;-68
2021/12/24 09:03:20;;;;;;;97.47;45.73;;;;;;;3.71;55.31;100082.91;5024744;28;20057;-67
2021/12/24 09:05:46;;;;;;;99.97;45.20;;;;;;;3.86;54.96;100083.56;5024931;28;20030;-67
2021/12/24 09:08:12;;;;;;;100.97;46.67;;;;;;;3.87;55.47;100080.00;5024132;28;20034;-72
2021/12/24 09:10:37;;;;;;;108.30;48.80;;;;;;;4.08;54.75;100048.78;5024380;28;20133;-72
2021/12/24 09:13:03;;;;;;;129.60;53.77;;;;;;;4.46;53.72;100053.81;5024501;28;20404;-72
2021/12/24 09:15:30;;;;;;;106.37;49.37;;;;;;;4.69;53.56;100054.69;5006513;28;20294;-68
2021/12/24 09:18:02;;;;;;;100.47;45.70;;;;;;;4.51;52.29;100062.16;5024194;28;20071;-72
2021/12/24 09:20:35;;;;;;;102.53;46.97;;;;;;;4.66;51.75;100047.88;5024247;28;20034;-67
2021/12/24 09:23:02;;;;;;;110.97;46.03;;;;;;;4.74;51.02;100039.44;5023748;28;20046;-67
2021/12/24 09:25:29;;;;;;;99.20;44.53;;;;;;;4.73;50.71;100033.34;5024125;28;20093;-72
2021/12/24 09:27:55;;;;;;;103.20;45.20;;;;;;;4.86;50.19;100025.38;5024091;28;20038;-73
2021/12/24 09:30:21;;;;;;;106.30;48.87;;;;;;;4.80;51.82;100021.44;5023436;28;20256;-73
2021/12/24 09:32:46;;;;;;;106.87;48.97;;;;;;;5.13;49.91;100010.09;5023698;28;20049;-73
2021/12/24 09:35:12;;;;;;;111.37;48.13;;;;;;;5.25;51.02;100004.84;5023437;28;20085;-72
2021/12/24 09:37:39;;;;;;;85.03;38.42;;;;;;;5.49;48.25;99986.31;5023616;28;20037;-73
2021/12/24 09:40:06;;;;;;;81.50;38.67;;;;;;;5.26;48.84;99975.84;5023653;28;20034;-68
2021/12/24 09:42:32;;;;;;;70.50;34.87;;;;;;;5.32;48.92;99977.16;5023454;28;20038;-73
2021/12/24 09:44:58;;;;;;;63.57;31.30;;;;;;;5.03;48.20;99948.78;5011827;28;20056;-72
2021/12/24 09:47:24;;;;;;;61.93;30.33;;;;;;;4.95;48.42;99966.09;5003020;28;20038;-72
2021/12/24 09:49:51;;;;;;;64.47;29.80;;;;;;;4.97;48.23;99961.56;4985808;28;20201;-73
2021/12/24 09:52:19;;;;;;;59.83;29.57;;;;;;;4.99;49.46;99959.66;5003107;28;20101;-72
2021/12/24 09:54:46;;;;;;;63.53;30.47;;;;;;;5.01;48.94;99955.94;5002696;28;20061;-68
2021/12/24 09:57:12;;;;;;;59.43;28.73;;;;;;;5.01;48.08;99955.09;5003093;28;20271;-74
2021/12/24 09:59:37;;;;;;;60.40;29.10;;;;;;;5.09;48.10;99958.78;5002639;28;20034;-73
2021/12/24 10:02:07;;;;;;;56.83;28.60;;;;;;;4.89;48.05;99954.28;5002595;28;20548;-67
2021/12/24 10:04:35;;;;;;;58.77;29.20;;;;;;;5.04;47.67;99963.56;5003173;28;20036;-68
2021/12/24 10:07:04;;;;;;;56.83;26.30;;;;;;;4.71;47.91;99946.06;5002673;28;20034;-67
2021/12/24 10:09:33;;;;;;;53.00;25.93;;;;;;;4.82;47.39;99940.81;5002851;28;20321;-68
2021/12/24 10:12:03;;;;;;;68.97;32.47;;;;;;;4.60;49.09;99930.34;5020693;28;20045;-74
2021/12/24 10:14:36;;;;;;;75.13;35.10;;;;;;;4.81;49.60;99930.44;5022020;28;20049;-67
2021/12/24 10:17:04;;;;;;;74.30;35.40;;;;;;;4.81;49.71;99925.19;5022093;28;20145;-67
2021/12/24 10:19:42;;;;;;;69.23;33.17;;;;;;;4.71;49.63;99916.38;4988624;28;20041;-72
2021/12/24 10:22:08;;;;;;;66.57;31.00;;;;;;;4.84;48.17;99913.63;4983042;28;20073;-67
2021/12/24 10:24:33;;;;;;;68.25;31.67;;;;;;;4.84;48.43;99903.97;4982673;28;20038;-68
2021/12/24 10:26:59;;;;;;;66.73;29.37;;;;;;;5.05;48.04;99901.41;4982764;28;20043;-71
2021/12/24 10:29:41;;;;;;;58.80;29.10;;;;;;;5.00;48.05;99906.19;4962178;28;20351;-69
2021/12/24 10:32:18;;;;;;;66.50;31.80;;;;;;;4.97;48.21;99907.28;4963169;28;20113;-72
2021/12/24 10:34:44;;;;;;;71.43;30.97;;;;;;;4.95;47.91;99895.25;4963755;28;20039;-67
2021/12/24 10:37:13;;;;;;;81.63;33.90;;;;;;;5.04;47.51;99890.09;4963365;28;20046;-74
2021/12/24 10:39:54;;;;;;;86.73;35.27;;;;;;;5.26;47.12;99893.63;4963217;28;20240;-69
2021/12/24 10:42:37;;;;;;;67.77;30.37;;;;;;;5.20;47.13;99888.84;4976461;28;20078;-68
2021/12/24 10:45:23;;;;;;;66.23;29.50;;;;;;;5.24;47.34;99858.78;4982745;28;20085;-65
2021/12/24 10:47:49;;;;;;;67.43;32.20;;;;;;;5.52;47.30;99881.84;4996381;28;20478;-64
2021/12/24 10:53:21;;;;;;;71.40;35.13;;;;;;;5.42;47.52;99873.03;4982155;28;20038;-67
2021/12/24 10:55:51;;;;;;;66.78;32.88;;;;;;;5.52;49.03;99879.19;4983002;28;20339;-71
2021/12/24 10:58:26;;;;;;;71.47;33.20;;;;;;;5.42;47.59;99857.28;4982542;28;20048;-69
2021/12/24 11:00:57;;;;;;;74.47;32.43;;;;;;;5.28;48.29;99873.34;4981992;28;20451;-72
2021/12/24 11:03:29;;;;;;;79.15;34.60;;;;;;;5.25;48.73;99874.44;4981381;28;20142;-70
2021/12/24 11:06:03;;;;;;;73.20;34.47;;;;;;;5.33;48.96;99865.91;4982661;28;20220;-70
2021/12/24 11:08:29;;;;;;;72.00;33.93;;;;;;;5.44;48.42;99861.44;4982436;28;20046;-75
2021/12/24 11:10:59;;;;;;;73.05;35.80;;;;;;;5.12;49.19;99844.84;4982515;28;20042;-73
2021/12/24 11:13:39;;;;;;;76.90;35.03;;;;;;;5.14;49.75;99846.38;4982512;28;20102;-73
2021/12/24 11:16:15;;;;;;;73.93;35.20;;;;;;;5.11;49.80;99836.13;4981948;28;20339;-73
2021/12/24 11:18:46;;;;;;;78.83;35.87;;;;;;;5.02;50.37;99830.81;4994360;28;20049;-73
2021/12/24 11:21:12;;;;;;;73.93;33.67;;;;;;;5.05;49.98;99830.56;5021223;28;20041;-68
2021/12/24 11:23:40;;;;;;;72.87;31.83;;;;;;;5.24;48.57;99816.78;5021052;28;20049;-68
2021/12/24 11:26:12;;;;;;;67.80;30.47;;;;;;;5.45;48.47;99818.47;5021294;28;20033;-73
2021/12/24 11:28:40;;;;;;;66.47;32.33;;;;;;;5.51;49.33;99825.00;5015090;28;20070;-74
2021/12/24 11:31:20;;;;;;;58.30;28.25;;;;;;;5.49;49.33;99824.31;4983953;28;20247;-73
2021/12/24 11:33:46;;;;;;;56.15;26.50;;;;;;;5.58;49.31;99817.44;4985444;28;20137;-68
2021/12/24 11:36:15;;;;;;;53.23;25.93;;;;;;;5.71;49.58;99813.66;5001672;28;20057;-74
2021/12/24 11:38:43;;;;;;;50.42;26.13;;;;;;;5.83;48.16;99798.66;5001811;28;20042;-73
2021/12/24 11:41:12;;;;;;;54.33;26.33;;;;;;;5.72;48.73;99799.56;5001479;28;20053;-74
2021/12/24 11:43:40;;;;;;;53.92;27.88;;;;;;;5.78;48.64;99799.03;5001745;28;20026;-74
2021/12/24 11:46:08;;;;;;;56.92;28.40;;;;;;;5.87;47.74;99786.91;5001362;28;20075;-74
2021/12/24 11:48:34;;;;;;;48.42;24.80;;;;;;;5.76;49.00;99790.47;5001864;28;20710;-68
2021/12/24 11:51:03;;;;;;;57.80;27.23;;;;;;;5.87;48.15;99781.66;5001546;28;20065;-69
2021/12/24 11:53:30;;;;;;;58.40;27.90;;;;;;;5.72;49.95;99781.19;5001722;28;20105;-67
2021/12/24 11:56:03;;;;;;;57.53;29.60;;;;;;;5.76;49.27;99773.88;5001478;28;20034;-73
2021/12/24 11:58:28;;;;;;;57.38;28.02;;;;;;;5.80;49.87;99771.81;5003428;28;20109;-67
2021/12/24 12:00:55;;;;;;;55.83;26.50;;;;;;;5.75;50.41;99761.69;5004894;28;20030;-68
2021/12/24 12:03:41;;;;;;;45.88;24.08;;;;;;;5.72;50.69;99764.56;5004972;28;20062;-68
2021/12/24 12:06:22;;;;;;;47.72;23.35;;;;;;;5.87;50.01;99762.44;5005088;28;20026;-75
2021/12/24 12:08:54;;;;;;;50.47;26.25;;;;;;;5.87;50.76;99752.75;5004879;28;20045;-73
2021/12/24 12:11:28;;;;;;;49.50;22.17;;;;;;;5.97;50.24;99750.19;4987527;28;20026;-73
2021/12/24 12:14:01;;;;;;;44.83;22.05;;;;;;;6.00;49.43;99747.31;5004873;28;20272;-67
2021/12/24 12:16:30;;;;;;;40.50;21.30;;;;;;;5.75;49.64;99745.94;4989795;28;20033;-68
2021/12/24 12:19:14;;;;;;;39.53;20.27;;;;;;;5.94;50.10;99735.53;5006988;28;20030;-74
2021/12/24 12:21:42;;;;;;;43.63;19.20;;;;;;;6.22;48.74;99739.22;5007701;28;20034;-73
2021/12/24 12:26:49;;;;;;;46.10;21.10;;;;;;;5.87;49.97;99737.00;5008048;28;20089;-73
2021/12/24 12:29:19;;;;;;;38.53;19.40;;;;;;;5.71;50.47;99729.59;5007177;28;20056;-74
2021/12/24 12:31:46;;;;;;;39.53;19.60;;;;;;;5.76;50.34;99739.72;5007589;28;20057;-74
2021/12/24 12:34:40;;;;;;;43.37;21.53;;;;;;;5.73;50.67;99734.72;4999536;28;20315;-67
2021/12/24 12:37:24;;;;;;;42.25;21.67;;;;;;;5.67;50.78;99740.50;5008060;28;20045;-73
2021/12/24 12:40:17;;;;;;;48.65;22.27;;;;;;;5.92;50.99;99749.75;5007855;28;20143;-68
2021/12/24 12:42:50;;;;;;;40.35;21.15;;;;;;;5.96;49.95;99752.00;5007730;28;20205;-75
2021/12/24 12:45:20;;;;;;;46.23;21.63;;;;;;;5.84;49.75;99734.63;5008778;28;20416;-74
2021/12/24 12:47:57;;;;;;;54.55;23.27;;;;;;;5.80;50.46;99735.84;5006371;28;20264;-74
2021/12/24 12:50:24;;;;;;;47.45;22.73;;;;;;;5.73;50.85;99725.03;5006942;28;20033;-67
2021/12/24 12:52:53;;;;;;;47.53;22.40;;;;;;;6.01;50.56;99731.41;5007339;28;20277;-68
2021/12/24 12:55:34;;;;;;;44.20;21.35;;;;;;;5.99;49.88;99728.06;5006997;28;20049;-68
2021/12/24 12:58:22;;;;;;;48.95;23.20;;;;;;;5.92;50.86;99724.31;5006478;28;20022;-68
2021/12/24 13:01:15;;;;;;;43.83;22.33;;;;;;;5.56;52.07;99720.41;5005240;28;20117;-73
2021/12/24 13:03:56;;;;;;;44.57;22.17;;;;;;;5.41;52.28;99732.19;5005102;28;20030;-67
2021/12/24 13:06:38;;;;;;;47.83;21.37;;;;;;;5.38;52.84;99725.41;5007511;28;20042;-67
2021/12/24 13:09:06;;;;;;;42.63;20.80;;;;;;;5.42;52.72;99736.50;5006850;28;20053;-72